Time,TemperatureF,DewpointF,PressureIn,WindDirection,WindDirectionDegrees,WindSpeedMPH,WindSpeedGustMPH,Humidity,HourlyPrecipIn,Conditions,Clouds,dailyrainin,SolarRadiationWatts/m^2,SoftwareType,DateUTC
2013-05-19 00:02:00,52.0,26.0,-100.00,SW,235,4.0,21.0,36,0.00,,,0.00,1.000000,,2013-05-19 06:02:00,
2013-05-19 00:11:00,52.0,26.0,-100.00,SW,235,4.0,21.0,36,0.00,,,0.00,1.000000,,2013-05-19 06:11:00,
2013-05-19 00:42:00,52.0,28.0,-100.00,WSW,247,5.0,30.0,39,0.00,,,0.00,1.000000,,2013-05-19 06:42:00,
2013-05-19 00:52:00,52.0,28.0,-100.00,WSW,247,5.0,30.0,39,0.00,,,0.00,1.000000,,2013-05-19 06:52:00,
2013-05-19 01:01:00,52.0,28.0,-100.00,WSW,247,5.0,30.0,39,0.00,,,0.00,1.000000,,2013-05-19 07:01:00,
2013-05-19 01:11:00,52.0,28.0,-100.00,WSW,247,5.0,30.0,39,0.00,,,0.00,1.000000,,2013-05-19 07:11:00,
2013-05-19 01:42:00,50.0,27.0,-100.00,SW,224,4.0,10.0,41,0.00,,,0.00,1.000000,,2013-05-19 07:42:00,
2013-05-19 01:52:00,50.0,27.0,-100.00,SW,224,4.0,10.0,41,0.00,,,0.00,1.000000,,2013-05-19 07:52:00,
2013-05-19 02:01:00,50.0,27.0,-100.00,SW,224,4.0,10.0,41,0.00,,,0.00,1.000000,,2013-05-19 08:01:00,
2013-05-19 02:12:00,50.0,27.0,-100.00,SW,224,4.0,10.0,41,0.00,,,0.00,1.000000,,2013-05-19 08:12:00,
2013-05-19 02:42:00,49.0,29.0,-100.00,SW,217,3.0,5.0,45,0.00,,,0.00,1.000000,,2013-05-19 08:42:00,
2013-05-19 02:52:00,49.0,29.0,-100.00,SW,217,3.0,5.0,45,0.00,,,0.00,1.000000,,2013-05-19 08:52:00,
2013-05-19 03:02:00,49.0,29.0,-100.00,SW,217,3.0,5.0,45,0.00,,,0.00,1.000000,,2013-05-19 09:02:00,
2013-05-19 03:11:00,49.0,29.0,-100.00,SW,217,3.0,5.0,45,0.00,,,0.00,1.000000,,2013-05-19 09:11:00,
2013-05-19 03:33:00,47.0,35.0,-100.00,West,268,7.0,33.0,64,0.00,,,0.00,1.000000,,2013-05-19 09:33:00,
2013-05-19 03:43:00,47.0,35.0,-100.00,West,268,7.0,33.0,64,0.00,,,0.00,1.000000,,2013-05-19 09:43:00,
2013-05-19 03:53:00,47.0,35.0,-100.00,West,268,7.0,33.0,64,0.00,,,0.00,1.000000,,2013-05-19 09:53:00,
2013-05-19 04:02:00,47.0,35.0,-100.00,West,268,7.0,33.0,64,0.00,,,0.00,1.000000,,2013-05-19 10:02:00,
2013-05-19 04:12:00,47.0,35.0,-100.00,West,268,7.0,33.0,64,0.00,,,0.00,1.000000,,2013-05-19 10:12:00,
2013-05-19 04:42:00,45.0,33.0,-100.00,WSW,252,6.0,10.0,62,0.00,,,0.00,1.000000,,2013-05-19 10:42:00,
2013-05-19 04:52:00,45.0,33.0,-100.00,WSW,252,6.0,10.0,62,0.00,,,0.00,1.000000,,2013-05-19 10:52:00,
2013-05-19 05:02:00,45.0,33.0,-100.00,WSW,252,6.0,10.0,62,0.00,,,0.00,1.000000,,2013-05-19 11:02:00,
2013-05-19 05:11:00,45.0,33.0,-100.00,WSW,252,6.0,10.0,62,0.00,,,0.00,1.000000,,2013-05-19 11:11:00,
2013-05-19 05:32:00,44.0,32.0,-100.00,WNW,298,2.0,8.0,63,0.00,,,0.00,1.000000,,2013-05-19 11:32:00,
2013-05-19 05:42:00,44.0,32.0,-100.00,WNW,298,2.0,8.0,63,0.00,,,0.00,1.000000,,2013-05-19 11:42:00,
2013-05-19 05:52:00,44.0,32.0,-100.00,WNW,298,2.0,8.0,63,0.00,,,0.00,1.000000,,2013-05-19 11:52:00,
2013-05-19 06:01:00,44.0,32.0,-100.00,WNW,298,2.0,8.0,63,0.00,,,0.00,1.000000,,2013-05-19 12:01:00,
2013-05-19 06:11:00,44.0,32.0,-100.00,WNW,298,2.0,8.0,63,0.00,,,0.00,1.000000,,2013-05-19 12:11:00,
2013-05-19 06:42:00,44.0,33.0,-100.00,SW,228,5.0,9.0,64,0.00,,,0.00,4.000000,,2013-05-19 12:42:00,
2013-05-19 06:52:00,44.0,33.0,-100.00,SW,228,5.0,9.0,64,0.00,,,0.00,4.000000,,2013-05-19 12:52:00,
2013-05-19 07:01:00,44.0,33.0,-100.00,SW,228,5.0,9.0,64,0.00,,,0.00,4.000000,,2013-05-19 13:01:00,
2013-05-19 07:11:00,44.0,33.0,-100.00,SW,228,5.0,9.0,64,0.00,,,0.00,4.000000,,2013-05-19 13:11:00,
2013-05-19 07:42:00,50.0,33.0,-100.00,WSW,256,9.0,11.0,52,0.00,,,0.00,82.000000,,2013-05-19 13:42:00,
2013-05-19 07:52:00,50.0,33.0,-100.00,WSW,256,9.0,11.0,52,0.00,,,0.00,82.000000,,2013-05-19 13:52:00,
2013-05-19 08:02:00,50.0,33.0,-100.00,WSW,256,9.0,11.0,52,0.00,,,0.00,82.000000,,2013-05-19 14:02:00,
2013-05-19 08:11:00,50.0,33.0,-100.00,WSW,256,9.0,11.0,52,0.00,,,0.00,82.000000,,2013-05-19 14:11:00,
2013-05-19 08:42:00,52.0,32.0,-100.00,WSW,255,11.0,16.0,46,0.00,,,-99.99,273.000000,,2013-05-19 14:42:00,
2013-05-19 08:52:00,52.0,32.0,-100.00,WSW,255,11.0,16.0,46,0.00,,,-99.99,273.000000,,2013-05-19 14:52:00,
2013-05-19 09:01:00,52.0,32.0,-100.00,WSW,255,11.0,16.0,46,0.00,,,-99.99,273.000000,,2013-05-19 15:01:00,
2013-05-19 09:11:00,52.0,32.0,-100.00,WSW,255,11.0,16.0,46,0.00,,,-99.99,273.000000,,2013-05-19 15:11:00,
2013-05-19 09:43:00,56.0,30.0,-100.00,WSW,247,14.0,21.0,37,0.00,,,0.00,503.000000,,2013-05-19 15:43:00,
2013-05-19 09:53:00,56.0,30.0,-100.00,WSW,247,14.0,21.0,37,0.00,,,0.00,503.000000,,2013-05-19 15:53:00,
2013-05-19 10:03:00,56.0,30.0,-100.00,WSW,247,14.0,21.0,37,0.00,,,0.00,503.000000,,2013-05-19 16:03:00,
2013-05-19 10:12:00,56.0,30.0,-100.00,WSW,247,14.0,21.0,37,0.00,,,0.00,503.000000,,2013-05-19 16:12:00,
2013-05-19 10:42:00,58.0,28.0,-100.00,West,269,16.0,25.0,31,0.00,,,-99.99,733.000000,,2013-05-19 16:42:00,
2013-05-19 10:52:00,58.0,28.0,-100.00,West,269,16.0,25.0,31,0.00,,,-99.99,733.000000,,2013-05-19 16:52:00,
2013-05-19 11:02:00,58.0,28.0,-100.00,West,269,16.0,25.0,31,0.00,,,-99.99,733.000000,,2013-05-19 17:02:00,
2013-05-19 11:12:00,58.0,28.0,-100.00,West,269,16.0,25.0,31,0.00,,,-99.99,733.000000,,2013-05-19 17:12:00,
2013-05-19 11:43:00,60.0,28.0,-100.00,WSW,256,15.0,25.0,29,0.00,,,0.00,804.000000,,2013-05-19 17:43:00,
2013-05-19 11:52:00,60.0,28.0,-100.00,WSW,256,15.0,25.0,29,0.00,,,0.00,804.000000,,2013-05-19 17:52:00,
2013-05-19 12:02:00,60.0,28.0,-100.00,WSW,256,15.0,25.0,29,0.00,,,0.00,804.000000,,2013-05-19 18:02:00,
2013-05-19 12:12:00,60.0,28.0,-100.00,WSW,256,15.0,25.0,29,0.00,,,0.00,804.000000,,2013-05-19 18:12:00,
2013-05-19 12:43:00,61.0,26.0,-100.00,West,269,17.0,27.0,26,0.00,,,0.00,998.000000,,2013-05-19 18:43:00,
2013-05-19 12:53:00,61.0,26.0,-100.00,West,269,17.0,27.0,26,0.00,,,0.00,998.000000,,2013-05-19 18:53:00,
2013-05-19 13:01:00,61.0,26.0,-100.00,West,269,17.0,27.0,26,0.00,,,0.00,998.000000,,2013-05-19 19:01:00,
2013-05-19 13:11:00,61.0,26.0,-100.00,West,269,17.0,27.0,26,0.00,,,0.00,998.000000,,2013-05-19 19:11:00,
2013-05-19 13:42:00,63.0,22.0,-100.00,West,272,18.0,30.0,21,0.00,,,0.00,1051.000000,,2013-05-19 19:42:00,
2013-05-19 13:52:00,63.0,22.0,-100.00,West,272,18.0,30.0,21,0.00,,,0.00,1051.000000,,2013-05-19 19:52:00,
2013-05-19 14:02:00,63.0,22.0,-100.00,West,272,18.0,30.0,21,0.00,,,0.00,1051.000000,,2013-05-19 20:02:00,
2013-05-19 14:11:00,63.0,22.0,-100.00,West,272,18.0,30.0,21,0.00,,,0.00,1051.000000,,2013-05-19 20:11:00,
2013-05-19 14:42:00,64.0,22.0,-100.00,West,273,19.0,35.0,20,0.00,,,0.00,925.000000,,2013-05-19 20:42:00,
2013-05-19 14:52:00,64.0,22.0,-100.00,West,273,19.0,35.0,20,0.00,,,0.00,925.000000,,2013-05-19 20:52:00,
2013-05-19 15:02:00,64.0,22.0,-100.00,West,273,19.0,35.0,20,0.00,,,0.00,925.000000,,2013-05-19 21:02:00,
2013-05-19 15:11:00,64.0,22.0,-100.00,West,273,19.0,35.0,20,0.00,,,0.00,925.000000,,2013-05-19 21:11:00,
2013-05-19 15:43:00,64.0,18.0,-100.00,West,276,20.0,33.0,17,0.00,,,0.00,676.000000,,2013-05-19 21:43:00,
2013-05-19 15:53:00,64.0,18.0,-100.00,West,276,20.0,33.0,17,0.00,,,0.00,676.000000,,2013-05-19 21:53:00,
2013-05-19 16:02:00,64.0,18.0,-100.00,West,276,20.0,33.0,17,0.00,,,0.00,676.000000,,2013-05-19 22:02:00,
2013-05-19 16:12:00,64.0,18.0,-100.00,West,276,20.0,33.0,17,0.00,,,0.00,676.000000,,2013-05-19 22:12:00,
2013-05-19 16:42:00,62.0,15.0,-100.00,WSW,250,22.0,41.0,16,0.00,,,0.00,454.000000,,2013-05-19 22:42:00,
2013-05-19 16:53:00,62.0,15.0,-100.00,WSW,250,22.0,41.0,16,0.00,,,0.00,454.000000,,2013-05-19 22:53:00,
2013-05-19 17:02:00,62.0,15.0,-100.00,WSW,250,22.0,41.0,16,0.00,,,0.00,454.000000,,2013-05-19 23:02:00,
2013-05-19 17:11:00,62.0,15.0,-100.00,WSW,250,22.0,41.0,16,0.00,,,0.00,454.000000,,2013-05-19 23:11:00,
2013-05-19 17:42:00,64.0,22.0,-100.00,WSW,242,15.0,42.0,20,0.00,,,0.00,504.000000,,2013-05-19 23:42:00,
2013-05-19 17:52:00,64.0,22.0,-100.00,WSW,242,15.0,42.0,20,0.00,,,0.00,504.000000,,2013-05-19 23:52:00,
2013-05-19 18:02:00,64.0,22.0,-100.00,WSW,242,15.0,42.0,20,0.00,,,0.00,504.000000,,2013-05-20 00:02:00,
2013-05-19 18:11:00,64.0,22.0,-100.00,WSW,242,15.0,42.0,20,0.00,,,0.00,504.000000,,2013-05-20 00:11:00,
2013-05-19 18:42:00,61.0,20.0,-100.00,WSW,252,18.0,31.0,20,0.00,,,0.00,454.000000,,2013-05-20 00:42:00,
2013-05-19 18:52:00,61.0,20.0,-100.00,WSW,252,18.0,31.0,20,0.00,,,0.00,454.000000,,2013-05-20 00:52:00,
2013-05-19 19:01:00,61.0,20.0,-100.00,WSW,252,18.0,31.0,20,0.00,,,0.00,454.000000,,2013-05-20 01:01:00,
2013-05-19 19:11:00,61.0,20.0,-100.00,WSW,252,18.0,31.0,20,0.00,,,0.00,454.000000,,2013-05-20 01:11:00,
2013-05-19 19:32:00,59.0,20.0,-100.00,WSW,249,14.0,30.0,22,0.00,,,0.00,183.000000,,2013-05-20 01:32:00,
2013-05-19 19:42:00,59.0,20.0,-100.00,WSW,249,14.0,30.0,22,0.00,,,0.00,183.000000,,2013-05-20 01:42:00,
2013-05-19 19:52:00,59.0,20.0,-100.00,WSW,249,14.0,30.0,22,0.00,,,0.00,183.000000,,2013-05-20 01:52:00,
2013-05-19 20:02:00,59.0,20.0,-100.00,WSW,249,14.0,30.0,22,0.00,,,0.00,183.000000,,2013-05-20 02:02:00,
2013-05-19 20:11:00,59.0,20.0,-100.00,WSW,249,14.0,30.0,22,0.00,,,0.00,183.000000,,2013-05-20 02:11:00,
2013-05-19 20:42:00,57.0,19.0,-100.00,West,279,8.0,26.0,22,0.00,,,0.00,36.000000,,2013-05-20 02:42:00,
2013-05-19 20:52:00,57.0,19.0,-100.00,West,279,8.0,26.0,22,0.00,,,0.00,36.000000,,2013-05-20 02:52:00,
2013-05-19 21:01:00,57.0,19.0,-100.00,West,279,8.0,26.0,22,0.00,,,0.00,36.000000,,2013-05-20 03:01:00,
2013-05-19 21:11:00,57.0,19.0,-100.00,West,279,8.0,26.0,22,0.00,,,0.00,36.000000,,2013-05-20 03:11:00,
2013-05-19 21:33:00,53.0,25.0,-100.00,WSW,245,8.0,34.0,34,0.00,,,0.00,1.000000,,2013-05-20 03:33:00,
2013-05-19 21:43:00,53.0,25.0,-100.00,WSW,245,8.0,34.0,34,0.00,,,0.00,1.000000,,2013-05-20 03:43:00,
2013-05-19 21:52:00,53.0,25.0,-100.00,WSW,245,8.0,34.0,34,0.00,,,0.00,1.000000,,2013-05-20 03:52:00,
2013-05-19 22:02:00,53.0,25.0,-100.00,WSW,245,8.0,34.0,34,0.00,,,0.00,1.000000,,2013-05-20 04:02:00,
2013-05-19 22:12:00,53.0,25.0,-100.00,WSW,245,8.0,34.0,34,0.00,,,0.00,1.000000,,2013-05-20 04:12:00,
2013-05-19 22:33:00,53.0,25.0,-100.00,South,189,8.0,15.0,33,0.00,,,0.00,1.000000,,2013-05-20 04:33:00,
2013-05-19 22:43:00,53.0,25.0,-100.00,South,189,8.0,15.0,33,0.00,,,0.00,1.000000,,2013-05-20 04:43:00,
2013-05-19 22:52:00,53.0,25.0,-100.00,South,189,8.0,15.0,33,0.00,,,0.00,1.000000,,2013-05-20 04:52:00,
2013-05-19 23:02:00,53.0,25.0,-100.00,South,189,8.0,15.0,33,0.00,,,0.00,1.000000,,2013-05-20 05:02:00,
2013-05-19 23:11:00,53.0,25.0,-100.00,South,189,8.0,15.0,33,0.00,,,0.00,1.000000,,2013-05-20 05:11:00,
2013-05-19 23:32:00,54.0,22.0,-100.00,West,261,14.0,28.0,29,0.00,,,0.00,1.000000,,2013-05-20 05:32:00,
2013-05-19 23:42:00,54.0,22.0,-100.00,West,261,14.0,28.0,29,0.00,,,0.00,1.000000,,2013-05-20 05:42:00,
2013-05-19 23:52:00,54.0,22.0,-100.00,West,261,14.0,28.0,29,0.00,,,0.00,1.000000,,2013-05-20 05:52:00,